Time;durP1;ratioP1;P1;durP2;ratioP2;P2;SDS_P1;SDS_P2;PMS_P1;PMS_P2;Temp;Humidity;BMP_temperature;BMP_pressure;BME280_temperature;BME280_humidity;BME280_pressure;Samples;Min_cycle;Max_cycle;Signal;HPM_P1;HPM_P2
2022/09/02 00:01:38;;;;;;;2.47;0.90;;;10.60;99.90;;;;;;5089274;28;20499;-66
2022/09/02 00:04:08;;;;;;;1.95;1.05;;;10.60;99.90;;;;;;5070463;28;20036;-67
2022/09/02 00:06:35;;;;;;;3.25;0.73;;;10.60;99.90;;;;;;5108941;28;20024;-67
2022/09/02 00:09:00;;;;;;;1.38;1.00;;;10.60;99.90;;;;;;5110846;28;20069;-66
2022/09/02 00:11:30;;;;;;;1.08;0.73;;;10.60;99.90;;;;;;5089211;28;20061;-67
2022/09/02 00:13:56;;;;;;;1.27;0.90;;;10.60;99.90;;;;;;5110728;28;20046;-66
2022/09/02 00:16:23;;;;;;;0.93;0.80;;;10.60;99.90;;;;;;5099852;28;20037;-67
2022/09/02 00:18:50;;;;;;;2.88;0.73;;;10.50;99.90;;;;;;5090705;27;20062;-66
2022/09/02 00:21:17;;;;;;;1.85;0.70;;;10.50;99.90;;;;;;5108242;28;20387;-66
2022/09/02 00:23:43;;;;;;;0.95;0.70;;;10.50;99.90;;;;;;5087008;28;20479;-67
2022/09/02 00:26:09;;;;;;;2.63;1.02;;;10.50;99.90;;;;;;5107875;28;20108;-67
2022/09/02 00:28:35;;;;;;;3.38;0.93;;;10.40;99.90;;;;;;5090588;28;20610;-66
2022/09/02 00:31:01;;;;;;;1.45;1.15;;;10.40;99.90;;;;;;5107734;28;20076;-66
2022/09/02 00:33:26;;;;;;;1.45;0.80;;;10.40;99.90;;;;;;5108686;28;20479;-66
2022/09/02 00:35:52;;;;;;;1.08;0.82;;;10.30;99.90;;;;;;5094269;28;20023;-66
2022/09/02 00:38:17;;;;;;;3.28;1.00;;;10.40;99.90;;;;;;5110459;28;20027;-66
2022/09/02 00:40:47;;;;;;;0.95;0.77;;;10.30;99.90;;;;;;5093359;28;20103;-66
2022/09/02 00:43:36;;;;;;;1.75;0.70;;;10.30;99.90;;;;;;5108999;28;20070;-66
2022/09/02 00:46:01;;;;;;;1.33;1.00;;;10.30;99.90;;;;;;5082113;28;20392;-66
2022/09/02 00:48:27;;;;;;;0.93;0.93;;;10.30;99.90;;;;;;5110244;28;20016;-66
2022/09/02 00:50:52;;;;;;;2.15;0.90;;;10.30;99.90;;;;;;5094206;28;20024;-66
2022/09/02 00:53:19;;;;;;;1.00;0.80;;;10.30;99.90;;;;;;5110198;28;20019;-67
2022/09/02 00:55:48;;;;;;;1.20;0.88;;;10.40;99.90;;;;;;5092663;28;20043;-66
2022/09/02 00:58:19;;;;;;;0.80;0.80;;;10.40;99.90;;;;;;5109816;28;20110;-67
2022/09/02 01:00:47;;;;;;;1.83;1.10;;;10.60;99.90;;;;;;5076101;28;20551;-66
2022/09/02 01:03:19;;;;;;;0.98;0.80;;;10.60;99.90;;;;;;5109938;28;20027;-67
2022/09/02 01:05:47;;;;;;;2.65;0.93;;;10.70;99.90;;;;;;5075843;28;20031;-66
2022/09/02 01:08:18;;;;;;;1.90;0.90;;;10.90;99.90;;;;;;5109807;28;20035;-66
2022/09/02 01:10:45;;;;;;;1.83;1.05;;;11.00;99.90;;;;;;5075444;28;20023;-67
2022/09/02 01:13:15;;;;;;;2.13;0.93;;;11.20;99.90;;;;;;5109756;28;20394;-66
2022/09/02 01:15:44;;;;;;;1.52;0.80;;;11.30;99.90;;;;;;5090890;28;20106;-67
2022/09/02 01:18:15;;;;;;;2.22;1.55;;;11.40;99.90;;;;;;5109699;28;20083;-67
2022/09/02 01:20:41;;;;;;;0.85;0.80;;;11.50;99.90;;;;;;5073960;28;20027;-67
2022/09/02 01:23:07;;;;;;;1.00;0.90;;;11.60;99.90;;;;;;5098104;28;20028;-67
2022/09/02 01:25:34;;;;;;;1.65;1.20;;;11.60;99.90;;;;;;5106874;28;20032;-67
2022/09/02 01:28:09;;;;;;;1.23;0.98;;;11.80;99.90;;;;;;5109604;28;20073;-68
2022/09/02 01:30:37;;;;;;;1.30;1.20;;;11.80;99.90;;;;;;5071650;28;20031;-67
2022/09/02 01:33:03;;;;;;;3.05;0.95;;;11.90;99.90;;;;;;5109462;28;20080;-67
2022/09/02 01:35:28;;;;;;;2.47;1.33;;;12.00;99.90;;;;;;5088777;28;20621;-67
2022/09/02 01:37:58;;;;;;;2.45;0.95;;;12.10;99.90;;;;;;5109439;28;20027;-67
2022/09/02 01:40:25;;;;;;;1.10;0.90;;;12.10;99.90;;;;;;5087800;28;20038;-67
2022/09/02 01:43:06;;;;;;;1.23;1.13;;;12.20;99.90;;;;;;5108899;28;20023;-68
2022/09/02 01:45:33;;;;;;;1.50;0.98;;;12.20;99.90;;;;;;5067580;28;20033;-67
2022/09/02 01:47:58;;;;;;;1.17;0.98;;;12.20;99.90;;;;;;5109073;28;20031;-67
2022/09/02 01:50:24;;;;;;;1.48;1.10;;;12.20;99.90;;;;;;5087624;28;20031;-68
2022/09/02 01:52:50;;;;;;;1.42;0.90;;;12.20;99.60;;;;;;5109149;28;20042;-67
2022/09/02 01:55:15;;;;;;;1.10;0.93;;;12.30;99.70;;;;;;5109066;28;20106;-68
2022/09/02 01:57:41;;;;;;;1.45;1.17;;;12.30;99.50;;;;;;5087605;28;20036;-68
2022/09/02 02:00:09;;;;;;;1.95;1.10;;;12.30;99.00;;;;;;5108377;28;20078;-67
2022/09/02 02:02:34;;;;;;;1.23;0.82;;;12.30;99.20;;;;;;5087084;28;20024;-67
2022/09/02 02:05:00;;;;;;;1.67;0.90;;;12.30;98.50;;;;;;5108403;28;20037;-68
2022/09/02 02:07:26;;;;;;;1.15;0.98;;;12.30;98.50;;;;;;5087335;28;20040;-67
2022/09/02 02:09:51;;;;;;;1.60;1.23;;;12.30;98.80;;;;;;5107223;28;20118;-67
2022/09/02 02:12:18;;;;;;;1.83;1.17;;;12.40;98.50;;;;;;5091624;28;20531;-67
2022/09/02 02:14:43;;;;;;;2.80;1.13;;;12.30;98.70;;;;;;5112449;28;20028;-67
2022/09/02 02:17:09;;;;;;;3.65;1.00;;;12.30;98.40;;;;;;5090082;28;20028;-67
2022/09/02 02:19:35;;;;;;;2.15;0.90;;;12.40;98.30;;;;;;5112467;28;20050;-67
2022/09/02 02:22:01;;;;;;;1.33;1.02;;;12.40;98.20;;;;;;5091372;28;20024;-67
2022/09/02 02:24:26;;;;;;;2.40;0.90;;;12.40;98.10;;;;;;5105673;28;20019;-68
2022/09/02 02:26:52;;;;;;;4.55;1.15;;;12.30;97.90;;;;;;5091202;28;20059;-67
2022/09/02 02:29:19;;;;;;;1.33;0.93;;;12.30;98.20;;;;;;5112161;28;20038;-68
2022/09/02 02:31:45;;;;;;;1.65;0.95;;;12.40;98.10;;;;;;5101121;28;20534;-66
2022/09/02 02:34:11;;;;;;;2.65;1.33;;;12.30;97.80;;;;;;5098978;28;20104;-67
2022/09/02 02:36:38;;;;;;;1.77;1.30;;;12.30;98.60;;;;;;5110809;28;20028;-67
2022/09/02 02:39:06;;;;;;;1.13;1.02;;;12.30;98.00;;;;;;5092619;28;20034;-67
2022/09/02 02:41:32;;;;;;;1.27;1.10;;;12.30;98.40;;;;;;5110289;28;20023;-67
2022/09/02 02:43:58;;;;;;;2.08;1.38;;;12.20;98.50;;;;;;5092524;28;20104;-67
2022/09/02 02:46:23;;;;;;;1.27;1.10;;;12.20;98.90;;;;;;5109687;28;20039;-67
2022/09/02 02:48:49;;;;;;;1.30;1.17;;;12.10;99.10;;;;;;5112456;28;20084;-67
2022/09/02 02:51:15;;;;;;;2.53;1.50;;;12.00;99.30;;;;;;5096196;28;20031;-67
2022/09/02 02:53:40;;;;;;;2.30;0.93;;;12.00;99.90;;;;;;5112476;27;20467;-67
2022/09/02 02:56:06;;;;;;;1.20;1.00;;;12.00;99.80;;;;;;5094585;28;20028;-67
2022/09/02 02:58:32;;;;;;;1.98;1.10;;;11.90;99.90;;;;;;5112333;28;20023;-67
2022/09/02 03:00:58;;;;;;;2.05;1.10;;;11.80;99.90;;;;;;5093218;28;20560;-66
2022/09/02 03:03:24;;;;;;;1.48;0.90;;;11.80;99.90;;;;;;5112306;28;20051;-67
2022/09/02 03:05:50;;;;;;;1.95;1.00;;;11.70;99.90;;;;;;5091696;28;20091;-67
2022/09/02 03:08:20;;;;;;;1.00;1.00;;;11.60;99.90;;;;;;5112194;28;20023;-67
2022/09/02 03:10:48;;;;;;;1.48;0.90;;;11.60;99.90;;;;;;5090557;28;20028;-66
2022/09/02 03:13:14;;;;;;;1.27;1.00;;;11.60;99.90;;;;;;5112053;28;20020;-67
2022/09/02 03:15:41;;;;;;;2.25;1.13;;;11.50;99.90;;;;;;5092057;28;20543;-67
2022/09/02 03:18:07;;;;;;;1.55;1.20;;;11.50;99.90;;;;;;5112018;28;20580;-67
2022/09/02 03:20:33;;;;;;;2.95;1.05;;;11.50;99.90;;;;;;5091942;28;20054;-67
2022/09/02 03:22:59;;;;;;;1.45;1.08;;;11.60;99.90;;;;;;5103537;28;20234;-67
2022/09/02 03:25:28;;;;;;;2.45;1.10;;;11.60;99.90;;;;;;5111917;28;20484;-67
2022/09/02 03:27:54;;;;;;;1.92;1.20;;;11.60;99.90;;;;;;5089552;28;20038;-67
2022/09/02 03:30:24;;;;;;;2.60;1.55;;;11.60;99.90;;;;;;5111066;28;20055;-67
2022/09/02 03:32:50;;;;;;;1.80;1.50;;;11.70;99.90;;;;;;5089553;28;20020;-65
2022/09/02 03:35:18;;;;;;;1.40;1.20;;;11.80;99.90;;;;;;5110839;28;20447;-65
2022/09/02 03:37:44;;;;;;;1.20;1.10;;;11.80;99.90;;;;;;5089326;28;20024;-64
2022/09/02 03:40:14;;;;;;;1.92;1.30;;;11.80;99.90;;;;;;5110972;28;20015;-64
2022/09/02 03:42:39;;;;;;;2.05;1.25;;;11.90;99.90;;;;;;5089233;28;20075;-64
2022/09/02 03:45:07;;;;;;;1.92;1.38;;;11.90;99.90;;;;;;5110519;28;20044;-64
2022/09/02 03:47:34;;;;;;;1.65;1.08;;;11.90;99.90;;;;;;5089245;28;20051;-64
2022/09/02 03:50:01;;;;;;;2.80;1.40;;;11.90;99.90;;;;;;5110811;28;20524;-64
2022/09/02 03:52:27;;;;;;;3.80;1.20;;;12.00;99.90;;;;;;5089428;27;20111;-64
2022/09/02 03:54:53;;;;;;;1.80;1.10;;;12.00;99.90;;;;;;5110123;28;20119;-64
2022/09/02 03:57:19;;;;;;;2.33;1.20;;;12.00;99.90;;;;;;5095284;28;20023;-65
2022/09/02 03:59:45;;;;;;;9.13;1.70;;;12.00;99.90;;;;;;5111350;28;20076;-64
2022/09/02 04:02:11;;;;;;;3.67;1.58;;;12.00;99.90;;;;;;5089704;28;20672;-64
2022/09/02 04:04:36;;;;;;;1.50;1.10;;;12.00;99.90;;;;;;5110553;28;20031;-64
2022/09/02 04:07:02;;;;;;;2.20;1.38;;;12.00;99.90;;;;;;5098700;28;20039;-65
2022/09/02 04:09:28;;;;;;;1.25;1.15;;;12.00;99.90;;;;;;5089941;28;20024;-64
2022/09/02 04:11:53;;;;;;;2.15;1.10;;;11.90;99.90;;;;;;5108277;28;20035;-64
2022/09/02 04:14:19;;;;;;;3.38;1.52;;;11.90;99.90;;;;;;5091223;28;20111;-65
2022/09/02 04:16:44;;;;;;;2.60;1.38;;;11.80;99.90;;;;;;5108239;28;20158;-64
2022/09/02 04:19:10;;;;;;;1.92;1.50;;;11.80;99.90;;;;;;5105802;28;20028;-66
2022/09/02 04:21:38;;;;;;;3.75;1.48;;;11.80;99.90;;;;;;5093208;28;20036;-64
2022/09/02 04:24:06;;;;;;;2.83;1.30;;;11.70;99.90;;;;;;5098991;28;20070;-64
2022/09/02 04:26:32;;;;;;;2.20;1.33;;;11.70;99.90;;;;;;5092336;28;20566;-65
2022/09/02 04:28:57;;;;;;;1.60;1.00;;;11.70;99.90;;;;;;5109456;28;20095;-64
2022/09/02 04:31:24;;;;;;;1.83;1.15;;;11.60;99.90;;;;;;5091591;27;20027;-65
2022/09/02 04:33:50;;;;;;;1.35;1.25;;;11.60;99.90;;;;;;5105729;28;20043;-64
2022/09/02 04:36:18;;;;;;;2.85;1.42;;;11.60;99.90;;;;;;5090087;28;20584;-64
2022/09/02 04:38:43;;;;;;;1.70;1.15;;;11.60;99.90;;;;;;5109114;28;20031;-63
2022/09/02 04:41:15;;;;;;;2.67;1.45;;;11.60;99.90;;;;;;5097855;28;20028;-63
2022/09/02 04:43:41;;;;;;;4.40;1.35;;;11.60;99.90;;;;;;5108916;28;20028;-63
2022/09/02 04:46:10;;;;;;;2.10;1.25;;;11.70;99.90;;;;;;5088235;28;20039;-64
2022/09/02 04:48:36;;;;;;;2.22;1.67;;;11.70;99.90;;;;;;5109190;28;20076;-64
2022/09/02 04:51:07;;;;;;;3.00;1.30;;;11.70;99.90;;;;;;5087101;28;20505;-63
2022/09/02 04:53:34;;;;;;;2.00;1.10;;;11.80;99.90;;;;;;5108782;28;20020;-64
2022/09/02 04:56:01;;;;;;;1.08;0.90;;;11.90;99.90;;;;;;5088804;28;20040;-64
2022/09/02 04:58:27;;;;;;;2.10;1.48;;;11.90;99.90;;;;;;5088777;28;20028;-64
2022/09/02 05:00:52;;;;;;;1.17;1.00;;;11.90;99.90;;;;;;5108137;28;20667;-63
2022/09/02 05:03:18;;;;;;;1.20;1.05;;;12.00;99.90;;;;;;5085008;28;20624;-64
2022/09/02 05:05:44;;;;;;;2.65;1.30;;;12.10;99.90;;;;;;5105916;28;20506;-63
2022/09/02 05:08:11;;;;;;;2.92;1.42;;;12.20;99.90;;;;;;5085643;28;20107;-64
2022/09/02 05:10:39;;;;;;;3.00;1.50;;;12.30;99.90;;;;;;5097306;28;20081;-65
2022/09/02 05:13:05;;;;;;;3.20;1.30;;;12.50;99.90;;;;;;5105868;28;20595;-64
2022/09/02 05:15:31;;;;;;;2.03;1.00;;;12.70;98.90;;;;;;5108328;27;20032;-64
2022/09/02 05:17:56;;;;;;;1.73;1.33;;;12.90;97.60;;;;;;5088779;28;20024;-64
2022/09/02 05:20:22;;;;;;;3.45;1.38;;;13.00;96.20;;;;;;5109175;28;20082;-65
2022/09/02 05:22:50;;;;;;;2.10;1.20;;;13.10;95.10;;;;;;5085493;28;20030;-64
2022/09/02 05:25:15;;;;;;;4.85;1.60;;;13.20;95.20;;;;;;5107888;28;20483;-65
2022/09/02 05:27:40;;;;;;;1.00;0.75;;;13.30;94.10;;;;;;5087805;28;20082;-65
2022/09/02 05:30:06;;;;;;;3.38;1.08;;;13.40;93.40;;;;;;5108316;28;20043;-65
2022/09/02 05:32:32;;;;;;;1.20;1.00;;;13.50;92.40;;;;;;5087511;28;20100;-65
2022/09/02 05:34:58;;;;;;;2.70;1.50;;;13.60;91.80;;;;;;5108249;28;20093;-65
2022/09/02 05:37:24;;;;;;;1.67;0.90;;;14.20;89.30;;;;;;5097858;28;20020;-66
2022/09/02 05:39:50;;;;;;;1.30;0.73;;;15.20;83.60;;;;;;5089191;28;20107;-66
2022/09/02 05:42:18;;;;;;;1.50;0.90;;;16.40;76.30;;;;;;5106403;28;20570;-66
2022/09/02 05:44:44;;;;;;;1.00;0.85;;;17.50;71.20;;;;;;5088332;28;20568;-66
2022/09/02 05:47:10;;;;;;;3.83;0.98;;;18.10;65.40;;;;;;5106091;28;20051;-66
2022/09/02 05:49:35;;;;;;;2.35;0.80;;;18.80;60.00;;;;;;5089140;28;20028;-66
2022/09/02 05:52:02;;;;;;;1.63;1.05;;;19.80;57.40;;;;;;5106179;28;20439;-66
2022/09/02 05:54:31;;;;;;;2.45;1.08;;;20.40;49.70;;;;;;5109042;28;20069;-66
2022/09/02 05:57:03;;;;;;;2.55;1.10;;;20.60;40.90;;;;;;5092798;28;20103;-66
2022/09/02 05:59:30;;;;;;;1.58;1.00;;;21.00;42.50;;;;;;5108854;28;20024;-66
2022/09/02 06:01:58;;;;;;;2.03;0.95;;;21.70;38.70;;;;;;5092658;28;20031;-66
2022/09/02 06:04:24;;;;;;;1.42;1.02;;;22.70;36.00;;;;;;5108863;28;20026;-66
2022/09/02 06:06:51;;;;;;;3.20;1.55;;;22.60;35.90;;;;;;5091689;28;20551;-66
2022/09/02 06:09:20;;;;;;;1.50;1.10;;;22.80;33.30;;;;;;5108816;28;20121;-66
2022/09/02 06:11:48;;;;;;;3.17;1.10;;;23.20;34.90;;;;;;5090607;28;20016;-64
2022/09/02 06:14:16;;;;;;;1.48;0.80;;;23.70;30.90;;;;;;5108759;28;20015;-64
2022/09/02 06:16:42;;;;;;;1.27;1.00;;;23.70;31.50;;;;;;5089878;28;20168;-64
2022/09/02 06:19:08;;;;;;;1.25;1.15;;;24.50;30.60;;;;;;5108761;28;20024;-64
2022/09/02 06:21:36;;;;;;;3.17;1.23;;;23.70;24.00;;;;;;5089118;28;20060;-64
2022/09/02 06:24:05;;;;;;;2.45;1.50;;;23.70;28.20;;;;;;5102070;28;20224;-64
2022/09/02 06:26:30;;;;;;;1.67;1.10;;;24.20;21.80;;;;;;5087834;28;20508;-64
2022/09/02 06:28:56;;;;;;;1.83;1.48;;;24.20;24.30;;;;;;5108566;28;20020;-64
2022/09/02 06:31:22;;;;;;;1.63;1.52;;;24.30;22.70;;;;;;5086945;28;20028;-63
2022/09/02 06:33:51;;;;;;;5.47;1.10;;;24.50;25.20;;;;;;5104800;28;20032;-64
2022/09/02 06:36:19;;;;;;;2.67;1.02;;;24.60;19.00;;;;;;5088333;28;20043;-64
2022/09/02 06:38:48;;;;;;;1.83;1.27;;;24.80;21.30;;;;;;5106310;28;20035;-64
2022/09/02 06:41:18;;;;;;;1.90;1.08;;;25.20;21.00;;;;;;5088430;28;20028;-64
2022/09/02 06:43:43;;;;;;;1.80;0.93;;;26.10;22.20;;;;;;5106390;28;20023;-64
2022/09/02 06:46:14;;;;;;;1.30;1.13;;;26.40;20.60;;;;;;5108381;28;20570;-64
2022/09/02 06:48:40;;;;;;;2.85;1.15;;;26.40;14.00;;;;;;5104482;28;20112;-64
2022/09/02 06:51:06;;;;;;;1.27;0.90;;;25.90;19.20;;;;;;5108337;28;20126;-64
2022/09/02 06:53:31;;;;;;;1.20;1.10;;;25.50;19.20;;;;;;5086740;28;20363;-63
2022/09/02 06:55:57;;;;;;;1.27;0.90;;;24.50;17.20;;;;;;5107664;28;20066;-64
2022/09/02 06:58:22;;;;;;;2.50;1.00;;;23.40;22.10;;;;;;5089426;28;20075;-63
2022/09/02 07:00:48;;;;;;;1.25;0.90;;;23.00;23.70;;;;;;5111490;28;20574;-63
2022/09/02 07:06:09;;;;;;;1.08;0.70;;;23.80;23.90;;;;;;5071268;28;20307;-63
2022/09/02 07:08:37;;;;;;;1.30;1.10;;;23.80;23.20;;;;;;5109505;28;20034;-63
2022/09/02 07:11:03;;;;;;;1.48;1.10;;;23.10;24.40;;;;;;5111750;28;20024;-63
2022/09/02 07:13:29;;;;;;;2.95;1.20;;;22.60;24.80;;;;;;5089989;28;20070;-63
2022/09/02 07:15:54;;;;;;;0.93;0.80;;;22.60;25.70;;;;;;5111147;28;20035;-63
2022/09/02 07:18:20;;;;;;;3.45;1.20;;;22.90;25.30;;;;;;5090086;28;20448;-63
2022/09/02 07:20:46;;;;;;;1.95;0.90;;;22.80;25.20;;;;;;5110889;28;20035;-63
2022/09/02 07:23:13;;;;;;;1.88;1.00;;;23.00;24.00;;;;;;5091730;28;20411;-63
2022/09/02 07:25:40;;;;;;;0.98;0.77;;;23.80;24.00;;;;;;5091487;28;20435;-64
2022/09/02 07:28:07;;;;;;;2.42;1.02;;;24.90;22.20;;;;;;5107849;28;20395;-63
2022/09/02 07:30:32;;;;;;;1.27;1.08;;;25.50;16.90;;;;;;5110059;28;20110;-64
2022/09/02 07:32:58;;;;;;;1.27;1.10;;;26.20;19.60;;;;;;5089798;28;20115;-57
2022/09/02 07:35:24;;;;;;;1.30;1.05;;;26.60;18.60;;;;;;5110802;28;20044;-57
2022/09/02 07:37:49;;;;;;;3.15;1.30;;;27.20;17.80;;;;;;5100156;28;20023;-57
2022/09/02 07:40:15;;;;;;;1.80;1.10;;;27.50;16.40;;;;;;5091368;28;20396;-57
2022/09/02 07:42:41;;;;;;;1.35;0.90;;;27.20;12.20;;;;;;5108551;28;20080;-57
2022/09/02 07:45:08;;;;;;;1.25;1.02;;;26.60;16.80;;;;;;5091256;28;20107;-57
2022/09/02 07:47:34;;;;;;;1.27;1.10;;;27.20;15.10;;;;;;5108439;28;20510;-57
2022/09/02 07:49:59;;;;;;;1.75;1.00;;;27.50;14.90;;;;;;5091213;28;20036;-57
2022/09/02 07:52:25;;;;;;;1.75;1.38;;;27.30;15.00;;;;;;5108703;28;20047;-58
2022/09/02 07:54:51;;;;;;;1.20;1.10;;;27.10;11.40;;;;;;5111078;28;20024;-57
2022/09/02 07:57:16;;;;;;;2.10;1.45;;;26.00;15.10;;;;;;5094647;28;20030;-57
2022/09/02 07:59:42;;;;;;;1.17;0.80;;;25.70;14.80;;;;;;5110917;28;20437;-57
2022/09/02 08:02:08;;;;;;;3.00;1.20;;;25.80;16.70;;;;;;5093000;28;20049;-57
2022/09/02 08:04:34;;;;;;;2.63;1.27;;;25.30;16.00;;;;;;5111000;28;20053;-57
2022/09/02 08:07:00;;;;;;;1.10;1.00;;;25.20;16.40;;;;;;5091639;28;20039;-57
2022/09/02 08:09:26;;;;;;;2.25;1.20;;;24.40;17.90;;;;;;5110406;28;20716;-57
2022/09/02 08:11:52;;;;;;;1.38;1.13;;;24.60;18.80;;;;;;5090338;28;20107;-57
2022/09/02 08:14:25;;;;;;;1.02;0.90;;;24.90;15.60;;;;;;5110743;28;20069;-57
2022/09/02 08:16:51;;;;;;;2.28;1.17;;;25.10;17.60;;;;;;5070623;28;20282;-57
2022/09/02 08:19:16;;;;;;;3.03;1.20;;;25.30;17.80;;;;;;5110648;28;20392;-56
2022/09/02 08:21:42;;;;;;;3.50;1.55;;;25.00;15.00;;;;;;5088798;28;20020;-56
2022/09/02 08:24:08;;;;;;;1.52;1.23;;;24.20;17.90;;;;;;5107508;28;20080;-57
2022/09/02 08:26:37;;;;;;;3.00;0.88;;;24.30;17.50;;;;;;5090724;28;20081;-58
2022/09/02 08:29:07;;;;;;;1.88;1.00;;;24.40;18.30;;;;;;5108085;28;20034;-57
2022/09/02 08:31:34;;;;;;;0.80;0.80;;;24.50;18.10;;;;;;5110225;28;20510;-58
2022/09/02 08:33:59;;;;;;;1.25;0.90;;;24.80;18.40;;;;;;5092910;28;20039;-57
2022/09/02 08:36:26;;;;;;;2.95;0.80;;;24.90;16.00;;;;;;5110359;28;20077;-58
2022/09/02 08:38:51;;;;;;;3.28;1.00;;;24.50;17.90;;;;;;5088611;28;20028;-57
2022/09/02 08:41:24;;;;;;;1.10;0.90;;;24.70;18.20;;;;;;5109229;28;20483;-57
2022/09/02 08:43:54;;;;;;;1.40;0.82;;;24.60;16.60;;;;;;5088347;28;20020;-56
2022/09/02 08:46:24;;;;;;;1.67;0.77;;;24.10;17.50;;;;;;5109767;28;20507;-57
2022/09/02 08:48:58;;;;;;;2.30;1.02;;;23.80;18.30;;;;;;5101976;28;20129;-57
2022/09/02 08:51:31;;;;;;;1.05;0.80;;;23.90;18.60;;;;;;5109877;28;20376;-58
2022/09/02 08:54:06;;;;;;;2.17;1.02;;;24.10;18.90;;;;;;5087950;28;20093;-57
2022/09/02 08:56:32;;;;;;;2.33;0.98;;;24.00;17.90;;;;;;5069314;28;20187;-58
2022/09/02 08:59:02;;;;;;;1.23;1.05;;;24.00;18.30;;;;;;5106590;28;20534;-57
2022/09/02 09:01:32;;;;;;;1.08;0.90;;;24.10;17.70;;;;;;5069264;28;20032;-57
2022/09/02 09:04:19;;;;;;;1.20;1.10;;;23.40;18.30;;;;;;5108085;28;20024;-57
2022/09/02 09:07:17;;;;;;;1.75;0.88;;;23.20;17.90;;;;;;5068986;28;20068;-57
2022/09/02 09:10:06;;;;;;;1.65;1.20;;;22.80;19.60;;;;;;5069289;28;20063;-57
2022/09/02 09:13:12;;;;;;;2.75;0.95;;;22.80;20.20;;;;;;5078226;28;20024;-57
2022/09/02 09:16:10;;;;;;;2.90;0.98;;;22.90;19.50;;;;;;5069280;28;20064;-56
2022/09/02 09:18:39;;;;;;;1.27;0.90;;;23.10;19.40;;;;;;5095848;28;20038;-57
2022/09/02 09:21:06;;;;;;;1.77;1.10;;;23.20;19.30;;;;;;5107327;28;20557;-57
2022/09/02 09:23:37;;;;;;;1.38;0.98;;;23.30;19.00;;;;;;5092173;28;20121;-57
2022/09/02 09:26:17;;;;;;;1.23;1.00;;;23.30;18.40;;;;;;5089167;28;20066;-57
2022/09/02 09:28:48;;;;;;;1.52;1.13;;;23.60;19.40;;;;;;5097000;28;20059;-57
2022/09/02 09:31:17;;;;;;;4.95;1.23;;;23.80;17.50;;;;;;5109184;28;20542;-57
2022/09/02 09:34:07;;;;;;;1.67;1.10;;;23.80;17.70;;;;;;5087890;28;20404;-57
2022/09/02 09:36:39;;;;;;;3.38;1.10;;;24.20;17.20;;;;;;5109345;28;20574;-57
2022/09/02 09:39:25;;;;;;;1.05;0.90;;;24.40;16.40;;;;;;5087552;28;20450;-56
2022/09/02 09:41:53;;;;;;;1.48;0.80;;;24.30;15.60;;;;;;5068650;28;20039;-57
2022/09/02 09:44:36;;;;;;;1.77;1.10;;;24.00;15.30;;;;;;5106964;28;20039;-57
2022/09/02 09:47:08;;;;;;;2.08;1.00;;;23.60;15.40;;;;;;5067198;28;20491;-56
2022/09/02 09:49:34;;;;;;;3.97;0.88;;;23.20;15.60;;;;;;5109179;28;20102;-57
2022/09/02 09:52:00;;;;;;;3.65;0.90;;;23.30;15.60;;;;;;5089103;28;20028;-56
2022/09/02 09:54:26;;;;;;;1.73;0.90;;;22.90;14.40;;;;;;5108907;28;20035;-56
2022/09/02 09:56:53;;;;;;;3.13;1.05;;;22.70;14.90;;;;;;5088888;28;20031;-58
2022/09/02 09:59:40;;;;;;;1.63;0.95;;;22.70;15.80;;;;;;5105479;28;20114;-58
2022/09/02 10:02:11;;;;;;;2.53;0.80;;;23.00;16.50;;;;;;5106858;28;20510;-56
2022/09/02 10:04:37;;;;;;;1.80;1.05;;;23.00;15.20;;;;;;5093992;28;20027;-57
2022/09/02 10:07:02;;;;;;;1.65;0.90;;;22.70;14.60;;;;;;5086357;28;20749;-56
2022/09/02 10:09:33;;;;;;;1.55;0.70;;;22.50;15.30;;;;;;5106047;28;20488;-57
2022/09/02 10:12:10;;;;;;;1.13;0.80;;;22.70;15.20;;;;;;5067356;28;20156;-57
2022/09/02 10:14:42;;;;;;;2.50;0.80;;;22.50;15.00;;;;;;5067094;28;20032;-57
2022/09/02 10:17:31;;;;;;;1.15;0.80;;;22.50;14.80;;;;;;5090086;28;20024;-54
2022/09/02 10:20:06;;;;;;;1.33;0.80;;;22.40;15.10;;;;;;5107882;28;20038;-55
2022/09/02 10:22:59;;;;;;;1.92;1.00;;;22.40;15.80;;;;;;5085708;28;20107;-54
2022/09/02 10:25:58;;;;;;;0.73;0.70;;;22.30;15.70;;;;;;5107697;28;20020;-57
2022/09/02 10:29:02;;;;;;;0.93;0.85;;;22.20;15.60;;;;;;5086642;28;20081;-58
2022/09/02 10:32:02;;;;;;;1.10;0.90;;;22.30;14.40;;;;;;5089214;28;20088;-59
2022/09/02 10:34:52;;;;;;;1.35;0.60;;;22.40;15.00;;;;;;5107754;28;20052;-58
2022/09/02 10:37:23;;;;;;;0.88;0.75;;;22.30;13.80;;;;;;5070959;28;20119;-58
2022/09/02 10:40:07;;;;;;;2.90;0.57;;;22.30;14.40;;;;;;5111648;28;20072;-58
2022/09/02 10:42:47;;;;;;;2.60;1.10;;;22.20;14.30;;;;;;5075121;28;20724;-64
2022/09/02 10:45:36;;;;;;;1.70;0.90;;;22.20;14.70;;;;;;5111489;28;20027;-63
2022/09/02 10:48:27;;;;;;;1.10;0.80;;;22.00;13.70;;;;;;5096235;28;20123;-59
2022/09/02 10:51:14;;;;;;;2.80;0.68;;;21.90;14.80;;;;;;5070550;28;20391;-59
2022/09/02 10:54:12;;;;;;;1.77;1.00;;;22.10;14.80;;;;;;5093293;28;20122;-59
2022/09/02 10:56:55;;;;;;;1.45;0.80;;;22.20;13.90;;;;;;5073786;28;20332;-59
2022/09/02 10:59:47;;;;;;;1.33;0.80;;;22.40;13.50;;;;;;5097715;28;20028;-58
2022/09/02 11:02:36;;;;;;;0.88;0.80;;;22.30;12.90;;;;;;5070299;28;20028;-58
2022/09/02 11:05:07;;;;;;;1.33;0.90;;;22.40;14.00;;;;;;5070436;28;20433;-58
2022/09/02 11:07:47;;;;;;;1.38;0.60;;;22.50;13.20;;;;;;5073262;28;20040;-58
2022/09/02 11:10:36;;;;;;;2.38;1.00;;;22.60;14.50;;;;;;5110955;28;20098;-58
2022/09/02 11:13:20;;;;;;;1.52;0.85;;;22.70;13.30;;;;;;5092265;28;20024;-58
2022/09/02 11:16:15;;;;;;;1.63;1.10;;;22.60;13.40;;;;;;5110697;28;20051;-58
2022/09/02 11:18:54;;;;;;;1.13;1.00;;;22.80;11.70;;;;;;5091702;28;20038;-58
2022/09/02 11:21:29;;;;;;;0.90;0.90;;;22.90;12.10;;;;;;5090618;28;20587;-59
2022/09/02 11:24:05;;;;;;;1.10;0.80;;;22.80;11.70;;;;;;5088813;28;20083;-58
2022/09/02 11:26:40;;;;;;;2.35;0.93;;;22.90;12.60;;;;;;5069898;28;20044;-58
2022/09/02 11:29:10;;;;;;;1.40;0.77;;;22.70;12.60;;;;;;5108382;28;20039;-58
2022/09/02 11:32:08;;;;;;;0.77;0.77;;;22.60;11.70;;;;;;5109283;28;20032;-58
2022/09/02 11:34:46;;;;;;;0.90;0.73;;;22.50;11.00;;;;;;5105772;28;20044;-60
2022/09/02 11:37:36;;;;;;;2.28;1.13;;;22.50;11.40;;;;;;5069962;28;20500;-60
2022/09/02 11:40:12;;;;;;;2.30;1.35;;;22.30;11.50;;;;;;5069762;28;20056;-60
2022/09/02 11:42:58;;;;;;;1.13;1.02;;;21.90;12.30;;;;;;5071251;28;20612;-59
2022/09/02 11:45:42;;;;;;;;;;;21.80;11.90;;;;;;5087654;28;20082;-59
2022/09/02 11:48:33;;;;;;;1.13;0.80;;;21.70;13.20;;;;;;5094386;28;19955;-60
2022/09/02 11:51:04;;;;;;;1.70;1.10;;;21.50;13.40;;;;;;5090562;28;20031;-59
2022/09/02 11:53:41;;;;;;;1.00;0.90;;;21.50;13.50;;;;;;5108164;28;20024;-59
2022/09/02 11:56:17;;;;;;;2.25;0.95;;;21.50;13.90;;;;;;5089388;28;20031;-60
2022/09/02 11:58:48;;;;;;;1.60;1.17;;;21.30;13.50;;;;;;5098748;28;20051;-60
2022/09/02 12:01:13;;;;;;;0.85;0.85;;;21.30;13.20;;;;;;5069862;28;20040;-60
2022/09/02 12:03:49;;;;;;;1.92;1.02;;;21.30;13.30;;;;;;5106724;28;20032;-59
2022/09/02 12:06:18;;;;;;;1.20;1.10;;;21.30;14.00;;;;;;5069666;28;20074;-60
2022/09/02 12:08:43;;;;;;;1.35;1.13;;;21.30;13.20;;;;;;5107757;28;20633;-59
2022/09/02 12:11:37;;;;;;;0.77;0.77;;;21.40;14.10;;;;;;5090237;28;20039;-60
2022/09/02 12:14:05;;;;;;;1.00;0.90;;;21.50;13.10;;;;;;5094072;28;20031;-59
2022/09/02 12:17:03;;;;;;;1.90;0.80;;;21.60;13.00;;;;;;5089667;28;20050;-59
2022/09/02 12:19:43;;;;;;;1.13;1.00;;;21.70;13.60;;;;;;5100513;28;20039;-60
2022/09/02 12:22:14;;;;;;;1.52;1.00;;;21.60;12.20;;;;;;5069563;28;20028;-59
2022/09/02 12:24:57;;;;;;;2.33;1.02;;;21.50;12.80;;;;;;5098872;28;20043;-59
2022/09/02 12:27:38;;;;;;;2.33;1.02;;;21.50;13.70;;;;;;5110834;28;20080;-59
2022/09/02 12:30:08;;;;;;;1.40;0.90;;;21.60;13.20;;;;;;5070302;28;20046;-59
2022/09/02 12:33:03;;;;;;;1.00;0.88;;;21.80;13.60;;;;;;5108618;28;20039;-59
2022/09/02 12:35:39;;;;;;;2.15;1.00;;;21.90;12.90;;;;;;5110680;28;20052;-59
2022/09/02 12:38:10;;;;;;;1.67;0.65;;;21.90;12.60;;;;;;5076765;28;20028;-60
2022/09/02 12:40:52;;;;;;;1.15;0.85;;;22.00;12.20;;;;;;5110764;28;20084;-60
2022/09/02 12:43:41;;;;;;;1.02;0.88;;;22.10;12.10;;;;;;5108330;28;20038;-59
2022/09/02 12:46:22;;;;;;;1.33;0.98;;;22.10;10.10;;;;;;5110539;28;20059;-59
2022/09/02 12:49:00;;;;;;;1.90;0.98;;;22.00;9.60;;;;;;5098665;28;20054;-59
2022/09/02 12:51:51;;;;;;;0.90;0.70;;;22.00;9.90;;;;;;5069771;28;20033;-59
2022/09/02 12:54:21;;;;;;;1.20;0.80;;;21.80;9.70;;;;;;5106818;28;20031;-59
2022/09/02 12:56:49;;;;;;;1.10;1.00;;;21.70;10.30;;;;;;5069183;28;20458;-60
2022/09/02 12:59:36;;;;;;;1.05;0.88;;;21.80;10.90;;;;;;5107557;28;20016;-59
2022/09/02 13:02:24;;;;;;;1.25;0.70;;;21.80;11.80;;;;;;5110043;28;20372;-59
2022/09/02 13:05:01;;;;;;;2.17;0.80;;;21.60;10.60;;;;;;5104266;28;20050;-59
2022/09/02 13:08:01;;;;;;;1.88;0.88;;;21.60;11.90;;;;;;5069260;28;20040;-60
2022/09/02 13:10:55;;;;;;;0.98;0.73;;;21.50;12.40;;;;;;5098733;28;20028;-59